Time;durP1;ratioP1;P1;durP2;ratioP2;P2;SDS_P1;SDS_P2;PMS_P1;PMS_P2;Temp;Humidity;BMP_temperature;BMP_pressure;BME280_temperature;BME280_humidity;BME280_pressure;Samples;Min_cycle;Max_cycle;Signal;HPM_P1;HPM_P2
2021/07/22 00:00:30;;;;;;;23.45;8.77;;;;;;;11.13;100.00;98478.34;4831106;29;20212;-81
2021/07/22 00:02:56;;;;;;;13.88;8.18;;;;;;;11.21;100.00;98488.50;4841622;29;20144;-80
2021/07/22 00:05:26;;;;;;;15.32;8.18;;;;;;;11.24;100.00;98504.97;4841844;29;20066;-80
2021/07/22 00:08:01;;;;;;;25.67;8.52;;;;;;;11.13;100.00;98505.44;4840987;29;20086;-80
2021/07/22 00:10:28;;;;;;;17.00;7.63;;;;;;;11.09;100.00;98482.75;4841709;29;20140;-80
2021/07/22 00:12:55;;;;;;;17.15;7.68;;;;;;;11.00;100.00;98495.34;4826886;29;20086;-80
2021/07/22 00:15:22;;;;;;;14.13;8.23;;;;;;;10.95;100.00;98498.16;4905678;29;20071;-81
2021/07/22 00:17:48;;;;;;;15.88;8.07;;;;;;;10.88;100.00;98495.84;4953797;28;20044;-80
2021/07/22 00:20:15;;;;;;;14.57;8.18;;;;;;;10.85;100.00;98488.28;4953741;28;20065;-81
2021/07/22 00:22:42;;;;;;;20.77;8.52;;;;;;;10.75;100.00;98493.06;4920678;29;20146;-81
2021/07/22 00:25:12;;;;;;;19.13;8.57;;;;;;;10.69;100.00;98491.53;4936606;28;20422;-81
2021/07/22 00:27:43;;;;;;;19.08;9.10;;;;;;;10.63;100.00;98493.53;4921687;29;20047;-81
2021/07/22 00:30:11;;;;;;;18.52;10.10;;;;;;;10.54;100.00;98489.84;4936675;29;20114;-80
2021/07/22 00:32:38;;;;;;;16.80;9.65;;;;;;;10.44;100.00;98492.72;4936687;29;20047;-81
2021/07/22 00:35:07;;;;;;;18.52;9.88;;;;;;;10.40;100.00;98491.69;4920512;29;20535;-80
2021/07/22 00:37:33;;;;;;;18.92;9.38;;;;;;;10.53;100.00;98499.06;4937265;29;20047;-81
2021/07/22 00:40:00;;;;;;;18.45;9.07;;;;;;;10.57;100.00;98495.50;4936439;29;20304;-80
2021/07/22 00:42:52;;;;;;;18.80;9.40;;;;;;;10.67;100.00;98496.44;4954119;29;20039;-81
2021/07/22 00:45:19;;;;;;;22.45;9.75;;;;;;;10.66;100.00;98495.63;4953563;29;20486;-80
2021/07/22 00:47:46;;;;;;;20.13;9.38;;;;;;;10.73;100.00;98493.38;4937177;29;20050;-81
2021/07/22 00:50:15;;;;;;;16.17;8.65;;;;;;;10.66;100.00;98498.34;4937361;29;20049;-81
2021/07/22 00:52:42;;;;;;;16.77;8.65;;;;;;;10.64;100.00;98487.81;4921023;29;20074;-81
2021/07/22 00:55:09;;;;;;;17.08;8.70;;;;;;;10.66;100.00;98487.50;4936583;29;20070;-81
2021/07/22 00:57:37;;;;;;;58.70;14.15;;;;;;;10.68;100.00;98485.31;4937390;29;20111;-80
2021/07/22 01:00:06;;;;;;;11.25;7.32;;;;;;;10.67;100.00;98480.19;4920277;29;20055;-81
2021/07/22 01:02:33;;;;;;;39.95;8.48;;;;;;;10.70;100.00;98490.44;4936938;29;20537;-81
2021/07/22 01:04:59;;;;;;;14.02;7.72;;;;;;;10.57;100.00;98481.16;4936490;29;20419;-81
2021/07/22 01:07:34;;;;;;;17.60;8.02;;;;;;;10.59;100.00;98476.25;4936633;29;20047;-81
2021/07/22 01:10:00;;;;;;;20.30;8.68;;;;;;;10.57;100.00;98481.16;4936208;29;20526;-81
2021/07/22 01:12:29;;;;;;;15.88;8.25;;;;;;;10.60;100.00;98486.00;4920522;29;20143;-81
2021/07/22 01:14:56;;;;;;;17.25;7.13;;;;;;;10.45;100.00;98476.16;4919900;29;20059;-80
2021/07/22 01:17:39;;;;;;;15.25;7.63;;;;;;;10.29;100.00;98477.50;4939252;29;20487;-81
2021/07/22 01:20:23;;;;;;;14.00;8.43;;;;;;;10.33;100.00;98475.00;4942099;29;20105;-80
2021/07/22 01:22:52;;;;;;;14.40;7.25;;;;;;;10.33;100.00;98466.88;4937896;28;20141;-80
2021/07/22 01:25:20;;;;;;;19.33;9.10;;;;;;;10.31;100.00;98463.66;4937801;28;20418;-80
2021/07/22 01:27:48;;;;;;;24.17;8.88;;;;;;;10.35;100.00;98465.50;4972832;28;20078;-80
2021/07/22 01:30:16;;;;;;;18.77;8.13;;;;;;;10.46;100.00;98466.16;4972735;28;20039;-79
2021/07/22 01:32:43;;;;;;;11.02;7.05;;;;;;;10.32;100.00;98463.41;4976732;28;20522;-79
2021/07/22 01:35:11;;;;;;;16.88;7.40;;;;;;;10.22;100.00;98455.38;4949120;28;20137;-80
2021/07/22 01:37:41;;;;;;;15.65;7.90;;;;;;;10.20;100.00;98467.59;4967579;28;20051;-79
2021/07/22 01:40:09;;;;;;;19.02;9.20;;;;;;;10.15;100.00;98460.38;4962650;28;20104;-79
2021/07/22 01:42:36;;;;;;;19.92;9.20;;;;;;;10.18;100.00;98467.91;4964085;28;20426;-79
2021/07/22 01:45:07;;;;;;;18.13;9.25;;;;;;;10.12;100.00;98454.72;4972020;28;20090;-80
2021/07/22 01:47:35;;;;;;;42.67;12.43;;;;;;;10.04;100.00;98462.38;4954760;28;20051;-79
2021/07/22 01:50:03;;;;;;;30.30;10.10;;;;;;;9.99;100.00;98454.31;4953401;28;20410;-80
2021/07/22 01:52:29;;;;;;;24.70;9.88;;;;;;;9.95;100.00;98449.78;4986742;28;20079;-79
2021/07/22 01:54:56;;;;;;;21.30;10.50;;;;;;;9.93;100.00;98452.00;4950713;28;20150;-80
2021/07/22 01:57:23;;;;;;;18.58;9.70;;;;;;;9.98;100.00;98457.34;4952814;28;20057;-79
2021/07/22 01:59:49;;;;;;;18.42;10.13;;;;;;;9.97;100.00;98453.81;4954761;28;20185;-79
2021/07/22 02:02:16;;;;;;;20.33;8.85;;;;;;;10.05;100.00;98463.19;4951951;28;20042;-79
2021/07/22 02:04:43;;;;;;;18.63;8.65;;;;;;;10.03;100.00;98451.84;4947599;28;20054;-80
2021/07/22 02:07:10;;;;;;;17.73;8.27;;;;;;;10.06;100.00;98453.97;4947337;28;20050;-80
2021/07/22 02:09:40;;;;;;;17.85;8.52;;;;;;;10.09;100.00;98455.31;4944371;28;20076;-80
2021/07/22 02:12:09;;;;;;;15.32;8.15;;;;;;;10.03;100.00;98447.25;4959603;28;20467;-80
2021/07/22 02:14:36;;;;;;;15.57;8.68;;;;;;;9.99;100.00;98443.50;4959490;28;20047;-81
2021/07/22 02:17:03;;;;;;;14.77;8.90;;;;;;;10.03;100.00;98447.25;4977629;28;20049;-80
2021/07/22 02:19:32;;;;;;;18.75;9.10;;;;;;;10.03;100.00;98444.56;4962686;28;20051;-80
2021/07/22 02:21:58;;;;;;;15.88;8.88;;;;;;;10.06;100.00;98448.56;4960181;28;20043;-80
2021/07/22 02:24:27;;;;;;;21.25;9.32;;;;;;;10.04;100.00;98442.63;4957340;28;20046;-80
2021/07/22 02:26:56;;;;;;;18.98;9.82;;;;;;;10.02;100.00;98456.47;4984880;28;20051;-81
2021/07/22 02:29:22;;;;;;;16.63;8.43;;;;;;;10.10;100.00;98452.28;4957337;28;20046;-80
2021/07/22 02:31:50;;;;;;;16.20;8.73;;;;;;;10.19;100.00;98447.06;4976738;28;20197;-80
2021/07/22 02:34:17;;;;;;;19.27;9.18;;;;;;;10.30;100.00;98454.75;4976207;28;20039;-80
2021/07/22 02:36:43;;;;;;;20.65;8.43;;;;;;;10.40;100.00;98451.88;4959016;28;20047;-79
2021/07/22 02:39:12;;;;;;;19.95;9.30;;;;;;;10.45;100.00;98451.03;4975726;28;20043;-80
2021/07/22 02:41:39;;;;;;;20.02;11.20;;;;;;;10.51;100.00;98449.81;4976462;28;20054;-79
2021/07/22 02:44:06;;;;;;;22.83;9.32;;;;;;;10.66;100.00;98462.34;4957451;28;20043;-80
2021/07/22 02:46:35;;;;;;;19.42;10.23;;;;;;;10.70;100.00;98447.91;4942488;28;20050;-80
2021/07/22 02:49:01;;;;;;;19.85;11.23;;;;;;;10.72;100.00;98451.13;4942382;28;20058;-80
2021/07/22 02:51:29;;;;;;;19.35;9.75;;;;;;;10.62;100.00;98443.97;4975601;28;20047;-79
2021/07/22 02:54:00;;;;;;;20.58;10.00;;;;;;;10.69;100.00;98453.59;4958812;28;20426;-79
2021/07/22 02:56:27;;;;;;;14.23;8.90;;;;;;;10.76;100.00;98452.16;4974482;28;20043;-80
2021/07/22 02:58:53;;;;;;;26.70;9.88;;;;;;;10.81;100.00;98449.38;4959318;28;20050;-80
2021/07/22 03:01:20;;;;;;;27.02;9.65;;;;;;;10.87;100.00;98450.06;4959855;28;20487;-80
2021/07/22 03:03:47;;;;;;;24.75;10.70;;;;;;;10.91;100.00;98446.50;4942604;28;20053;-80
2021/07/22 03:06:15;;;;;;;26.30;12.45;;;;;;;11.13;100.00;98457.47;4942544;28;20049;-80
2021/07/22 03:08:42;;;;;;;30.35;13.93;;;;;;;11.22;100.00;98452.97;4958870;28;20046;-80
2021/07/22 03:11:12;;;;;;;27.63;13.38;;;;;;;11.33;100.00;98460.91;4974917;28;20042;-79
2021/07/22 03:13:39;;;;;;;28.42;13.93;;;;;;;11.40;100.00;98464.84;4958310;28;20051;-80
2021/07/22 03:16:09;;;;;;;27.23;14.15;;;;;;;11.46;100.00;98468.28;4974391;28;20046;-80
2021/07/22 03:18:35;;;;;;;29.98;14.15;;;;;;;11.47;100.00;98451.69;4956684;28;20050;-80
2021/07/22 03:21:05;;;;;;;26.15;13.75;;;;;;;11.53;100.00;98455.94;4974256;28;20063;-79
2021/07/22 03:23:32;;;;;;;27.92;12.60;;;;;;;11.65;100.00;98463.53;4973745;28;20150;-79
2021/07/22 03:25:58;;;;;;;21.77;11.55;;;;;;;11.54;100.00;98462.13;4975468;23;20058;-80
2021/07/22 03:28:25;;;;;;;23.10;11.02;;;;;;;11.54;100.00;98452.09;4985532;28;20150;-80
2021/07/22 03:30:52;;;;;;;22.48;11.20;;;;;;;11.57;100.00;98453.41;4985889;28;20049;-82
2021/07/22 03:33:18;;;;;;;26.17;11.75;;;;;;;11.60;100.00;98452.78;4972577;28;20058;-81
2021/07/22 03:35:45;;;;;;;23.30;11.60;;;;;;;11.62;100.00;98456.00;4989332;28;20065;-80
2021/07/22 03:38:12;;;;;;;25.60;11.90;;;;;;;11.64;100.00;98457.31;4968655;28;20066;-84
2021/07/22 03:40:39;;;;;;;28.70;11.77;;;;;;;11.67;100.00;98447.78;5001432;23;20417;-81
2021/07/22 03:43:05;;;;;;;23.25;11.30;;;;;;;11.73;100.00;98463.69;5014436;28;20050;-84
2021/07/22 03:45:32;;;;;;;32.75;12.30;;;;;;;11.82;100.00;98436.63;4994177;28;20046;-82
2021/07/22 03:47:59;;;;;;;24.75;11.98;;;;;;;11.92;100.00;98446.50;4996041;28;20049;-82
2021/07/22 03:50:27;;;;;;;22.48;11.30;;;;;;;12.00;100.00;98446.56;4987858;28;20046;-82
2021/07/22 03:52:56;;;;;;;28.65;11.75;;;;;;;12.05;100.00;98440.25;4961049;28;20411;-82
2021/07/22 03:55:26;;;;;;;26.13;13.27;;;;;;;12.09;100.00;98438.50;4959685;28;20047;-83
2021/07/22 03:57:54;;;;;;;30.23;14.02;;;;;;;12.13;100.00;98444.97;4978392;28;20042;-83
2021/07/22 04:00:22;;;;;;;24.50;12.27;;;;;;;12.20;100.00;98443.44;4978136;28;20047;-82
2021/07/22 04:03:01;;;;;;;33.15;13.90;;;;;;;12.22;100.00;98445.81;4978653;28;20614;-84
2021/07/22 04:05:28;;;;;;;25.80;13.00;;;;;;;12.24;100.00;98454.47;4997099;28;20035;-81
2021/07/22 04:07:56;;;;;;;29.58;13.93;;;;;;;12.30;100.00;98456.78;4990450;28;20047;-77
2021/07/22 04:10:24;;;;;;;24.42;12.85;;;;;;;12.30;100.00;98445.91;5003147;28;20054;-78
2021/07/22 04:12:57;;;;;;;23.00;11.65;;;;;;;12.38;100.00;98445.19;5000640;28;20038;-77
2021/07/22 04:15:25;;;;;;;22.20;10.80;;;;;;;12.42;100.00;98443.44;4968355;28;20054;-78
2021/07/22 04:17:53;;;;;;;29.80;12.90;;;;;;;12.48;100.00;98450.38;4998742;28;20060;-82
2021/07/22 04:20:22;;;;;;;26.42;12.25;;;;;;;12.54;100.00;98442.13;4997063;28;20061;-83
2021/07/22 04:22:50;;;;;;;27.05;12.75;;;;;;;12.61;100.00;98447.91;4965859;28;20054;-82
2021/07/22 04:25:17;;;;;;;25.33;12.43;;;;;;;12.70;100.00;98449.56;4983719;28;20055;-83
2021/07/22 04:27:43;;;;;;;24.10;11.93;;;;;;;12.77;100.00;98446.44;5010560;28;20046;-80
2021/07/22 04:30:10;;;;;;;23.98;12.20;;;;;;;12.85;100.00;98437.56;5012747;28;20572;-81
2021/07/22 04:32:37;;;;;;;21.92;10.98;;;;;;;12.86;100.00;98439.16;4986928;28;20080;-81
2021/07/22 04:35:08;;;;;;;24.02;11.45;;;;;;;12.97;100.00;98440.50;4998089;28;20089;-80
2021/07/22 04:37:36;;;;;;;25.00;11.20;;;;;;;12.98;100.00;98444.84;4976746;28;20058;-81
2021/07/22 04:40:06;;;;;;;20.75;11.07;;;;;;;13.06;100.00;98436.75;4994945;28;20039;-81
2021/07/22 04:42:34;;;;;;;16.85;11.07;;;;;;;13.14;100.00;98437.91;4981142;28;20050;-80
2021/07/22 04:45:01;;;;;;;23.95;10.68;;;;;;;13.23;100.00;98440.69;4981762;28;20038;-82
2021/07/22 04:47:27;;;;;;;22.42;11.15;;;;;;;13.36;100.00;98437.88;4997812;28;20490;-83
2021/07/22 04:49:53;;;;;;;20.63;10.52;;;;;;;13.49;100.00;98434.25;4980824;28;20101;-81
2021/07/22 04:52:20;;;;;;;22.38;10.40;;;;;;;13.53;100.00;98432.50;4998219;28;20050;-81
2021/07/22 04:54:47;;;;;;;19.85;10.20;;;;;;;13.59;100.00;98430.44;4985674;28;20269;-83
2021/07/22 04:57:13;;;;;;;19.33;9.85;;;;;;;13.69;100.00;98427.44;5007262;28;20262;-83
2021/07/22 04:59:40;;;;;;;17.05;10.45;;;;;;;13.83;100.00;98443.66;5008021;28;20049;-82
2021/07/22 05:02:07;;;;;;;19.98;10.55;;;;;;;13.85;100.00;98431.34;5005048;28;20050;-80
2021/07/22 05:04:34;;;;;;;22.30;10.95;;;;;;;13.96;100.00;98429.91;5002682;28;20049;-79
2021/07/22 05:07:01;;;;;;;20.38;9.75;;;;;;;14.07;100.00;98444.00;4997906;28;20494;-79
2021/07/22 05:09:27;;;;;;;20.38;9.63;;;;;;;14.09;100.00;98439.84;4989125;28;20043;-81
2021/07/22 05:11:55;;;;;;;25.20;11.25;;;;;;;14.15;100.00;98438.59;4973757;28;20647;-81
2021/07/22 05:14:21;;;;;;;21.63;9.77;;;;;;;14.32;100.00;98429.69;4976900;28;20050;-82
2021/07/22 05:16:49;;;;;;;18.85;10.20;;;;;;;14.44;100.00;98431.75;4979348;28;20046;-84
2021/07/22 05:19:15;;;;;;;15.45;9.45;;;;;;;14.41;100.00;98425.03;4979775;28;20097;-83
2021/07/22 05:21:43;;;;;;;18.60;10.23;;;;;;;14.60;100.00;98430.97;4979752;28;20050;-83
2021/07/22 05:24:09;;;;;;;19.95;9.98;;;;;;;14.77;100.00;98436.41;4980870;28;20046;-81
2021/07/22 05:26:37;;;;;;;23.52;10.10;;;;;;;14.88;100.00;98424.03;4982697;28;20046;-81
2021/07/22 05:29:06;;;;;;;19.55;9.88;;;;;;;14.94;100.00;98414.56;4982103;28;20035;-83
2021/07/22 05:31:33;;;;;;;20.75;9.95;;;;;;;15.13;100.00;98421.56;4964521;28;20046;-84
2021/07/22 05:34:01;;;;;;;16.17;9.55;;;;;;;15.24;100.00;98425.56;4980756;28;20471;-83
2021/07/22 05:36:27;;;;;;;22.92;9.80;;;;;;;15.27;100.00;98422.19;4980059;28;20038;-83
2021/07/22 05:38:54;;;;;;;18.00;9.02;;;;;;;15.36;100.00;98418.28;4962061;28;20471;-79
2021/07/22 05:41:20;;;;;;;15.43;9.38;;;;;;;15.56;100.00;98425.78;4980743;28;20183;-81
2021/07/22 05:43:47;;;;;;;20.80;8.95;;;;;;;15.69;100.00;98417.72;4980913;28;20406;-80
2021/07/22 05:46:18;;;;;;;15.98;8.75;;;;;;;15.90;100.00;98418.53;4980088;28;20511;-80
2021/07/22 05:48:45;;;;;;;19.05;10.20;;;;;;;15.97;100.00;98410.66;4962357;28;20061;-81
2021/07/22 05:51:12;;;;;;;23.17;9.65;;;;;;;16.02;100.00;98413.19;4978891;28;20046;-81
2021/07/22 05:53:39;;;;;;;17.15;9.35;;;;;;;16.18;100.00;98414.22;4977365;28;20050;-82
2021/07/22 05:56:05;;;;;;;16.80;8.52;;;;;;;16.19;100.00;98416.59;4977155;28;20053;-81
2021/07/22 05:58:34;;;;;;;18.23;8.90;;;;;;;16.41;100.00;98418.22;4977102;28;20427;-79
2021/07/22 06:01:05;;;;;;;16.45;8.23;;;;;;;16.41;100.00;98417.41;4958087;28;20043;-80
2021/07/22 06:03:32;;;;;;;18.70;8.55;;;;;;;16.49;100.00;98411.06;4943038;28;20117;-81
2021/07/22 06:05:59;;;;;;;19.52;9.98;;;;;;;16.61;100.00;98422.09;4975539;28;20562;-81
2021/07/22 06:08:25;;;;;;;14.75;5.97;;;;;;;16.70;100.00;98420.88;4975839;28;20472;-80
2021/07/22 06:10:52;;;;;;;23.55;8.27;;;;;;;17.00;100.00;98412.56;4975561;28;20113;-81
2021/07/22 06:13:19;;;;;;;15.13;7.68;;;;;;;17.04;100.00;98414.28;4975708;28;20104;-83
2021/07/22 06:15:45;;;;;;;14.18;7.30;;;;;;;17.31;100.00;98413.66;4976226;28;20105;-83
2021/07/22 06:18:11;;;;;;;16.65;7.20;;;;;;;17.30;100.00;98420.28;4976282;28;20074;-83
2021/07/22 06:20:39;;;;;;;16.73;6.50;;;;;;;17.44;100.00;98419.97;4961155;28;20388;-81
2021/07/22 06:23:06;;;;;;;13.75;6.72;;;;;;;17.35;100.00;98416.50;4977834;28;20565;-82
2021/07/22 06:25:34;;;;;;;12.32;6.15;;;;;;;17.51;100.00;98417.44;4977797;28;20039;-81
2021/07/22 06:28:01;;;;;;;13.68;7.55;;;;;;;17.69;100.00;98418.88;4976493;28;20402;-81
2021/07/22 06:30:30;;;;;;;14.95;8.07;;;;;;;17.84;100.00;98406.41;4943058;28;20043;-84
2021/07/22 06:32:58;;;;;;;19.20;8.07;;;;;;;18.23;100.00;98415.84;4978043;28;20042;-83
2021/07/22 06:35:24;;;;;;;13.85;7.80;;;;;;;18.30;100.00;98422.34;4979360;28;20045;-83
2021/07/22 06:37:55;;;;;;;15.38;7.53;;;;;;;18.02;100.00;98414.06;4980009;28;20046;-80
2021/07/22 06:40:22;;;;;;;17.73;8.48;;;;;;;18.26;100.00;98421.44;4972740;28;20051;-81
2021/07/22 06:42:49;;;;;;;18.38;7.50;;;;;;;18.49;100.00;98414.34;4981130;28;20562;-82
2021/07/22 06:45:15;;;;;;;15.88;7.80;;;;;;;18.74;100.00;98406.03;4980867;28;20570;-83
2021/07/22 06:47:42;;;;;;;17.17;7.82;;;;;;;18.80;100.00;98407.34;4984212;28;20051;-84
2021/07/22 06:50:09;;;;;;;15.43;7.60;;;;;;;18.95;100.00;98412.09;4982273;28;20057;-80
2021/07/22 06:52:37;;;;;;;15.80;7.68;;;;;;;19.06;100.00;98411.25;4988528;28;20053;-82
2021/07/22 06:55:05;;;;;;;14.88;7.63;;;;;;;19.17;100.00;98403.28;4983991;28;20514;-83
2021/07/22 06:57:32;;;;;;;14.70;7.50;;;;;;;19.38;100.00;98403.88;4982477;28;20047;-81
2021/07/22 06:59:59;;;;;;;13.70;8.18;;;;;;;19.40;100.00;98401.56;4973724;28;20499;-82
2021/07/22 07:02:25;;;;;;;14.07;7.43;;;;;;;19.76;100.00;98406.78;4973615;28;20129;-82
2021/07/22 07:04:52;;;;;;;14.25;7.38;;;;;;;19.42;100.00;98402.00;4974199;28;20065;-82
2021/07/22 07:07:19;;;;;;;12.38;7.15;;;;;;;19.57;100.00;98403.97;4974160;28;20042;-82
2021/07/22 07:09:46;;;;;;;13.52;7.32;;;;;;;20.18;100.00;98406.19;4974853;28;20070;-82
2021/07/22 07:12:13;;;;;;;14.13;7.45;;;;;;;20.12;100.00;98394.66;4975258;28;20050;-82
2021/07/22 07:14:40;;;;;;;13.80;7.60;;;;;;;19.81;100.00;98406.53;4975518;28;20050;-81
2021/07/22 07:17:06;;;;;;;13.88;7.63;;;;;;;20.18;100.00;98408.94;4976751;28;20051;-84
2021/07/22 07:19:34;;;;;;;13.88;7.53;;;;;;;20.09;100.00;98408.31;4983068;28;20057;-83
2021/07/22 07:22:00;;;;;;;16.88;7.65;;;;;;;20.14;100.00;98400.59;4978697;28;20058;-82
2021/07/22 07:24:27;;;;;;;14.10;6.88;;;;;;;20.13;100.00;98398.22;4976659;28;20399;-81
2021/07/22 07:26:53;;;;;;;14.15;7.40;;;;;;;20.49;100.00;98404.16;4979116;28;20047;-81
2021/07/22 07:29:20;;;;;;;16.70;9.95;;;;;;;20.73;100.00;98391.25;4981626;28;20050;-80
2021/07/22 07:31:46;;;;;;;11.63;7.30;;;;;;;20.30;100.00;98395.09;4981264;28;20043;-83
2021/07/22 07:34:13;;;;;;;12.70;6.88;;;;;;;20.80;100.00;98389.44;4980914;28;20089;-82
2021/07/22 07:36:44;;;;;;;14.98;7.15;;;;;;;20.97;100.00;98397.28;4979451;28;20482;-80
2021/07/22 07:39:13;;;;;;;13.77;8.07;;;;;;;21.15;100.00;98389.38;4979851;28;20060;-82
2021/07/22 07:41:40;;;;;;;15.68;9.02;;;;;;;21.19;100.00;98381.19;4979956;28;20047;-81
2021/07/22 07:44:06;;;;;;;12.80;7.63;;;;;;;21.08;100.00;98383.75;4963018;28;20106;-81
2021/07/22 07:46:33;;;;;;;12.60;7.20;;;;;;;21.17;100.00;98383.47;4980755;28;20047;-81
2021/07/22 07:48:59;;;;;;;12.70;7.53;;;;;;;21.61;100.00;98398.44;4980306;28;20043;-81
2021/07/22 07:51:26;;;;;;;15.00;7.25;;;;;;;21.15;100.00;98392.13;4980388;28;20235;-81
2021/07/22 07:53:53;;;;;;;13.07;6.78;;;;;;;21.82;100.00;98384.19;4984719;28;20558;-82
2021/07/22 07:56:19;;;;;;;14.02;7.50;;;;;;;22.00;100.00;98382.53;4978479;28;20047;-81
2021/07/22 07:58:47;;;;;;;13.23;7.90;;;;;;;22.16;100.00;98388.69;4979808;28;20043;-82
2021/07/22 08:01:13;;;;;;;12.85;7.97;;;;;;;22.14;100.00;98383.53;4962743;28;20090;-83
2021/07/22 08:03:40;;;;;;;13.63;8.32;;;;;;;22.54;100.00;98384.84;4981463;28;20050;-82
2021/07/22 08:06:06;;;;;;;12.38;8.10;;;;;;;22.43;100.00;98381.97;4977707;28;20050;-82
2021/07/22 08:08:33;;;;;;;13.70;8.48;;;;;;;22.58;100.00;98380.19;4977683;28;20117;-83
2021/07/22 08:11:00;;;;;;;12.55;8.55;;;;;;;22.47;100.00;98380.06;4979517;28;20419;-82
2021/07/22 08:13:27;;;;;;;14.13;9.00;;;;;;;22.75;100.00;98385.16;4978148;28;20058;-83
2021/07/22 08:15:54;;;;;;;14.57;9.20;;;;;;;22.86;100.00;98380.56;4976962;28;20054;-81
2021/07/22 08:18:20;;;;;;;13.63;8.98;;;;;;;23.06;100.00;98373.66;4962667;28;20055;-82
2021/07/22 08:20:47;;;;;;;18.90;9.77;;;;;;;23.29;100.00;98379.81;4977838;28;20077;-82
2021/07/22 08:23:13;;;;;;;15.68;10.55;;;;;;;22.53;100.00;98364.72;4979492;28;20071;-83
2021/07/22 08:25:40;;;;;;;16.52;10.60;;;;;;;23.24;100.00;98385.69;4983056;28;20039;-82
2021/07/22 08:28:11;;;;;;;15.73;10.20;;;;;;;23.53;93.22;98376.53;4982121;28;20047;-83
2021/07/22 08:30:37;;;;;;;16.65;10.68;;;;;;;23.55;97.82;98379.69;4963721;28;20230;-82
2021/07/22 08:33:04;;;;;;;15.20;9.50;;;;;;;23.81;96.51;98383.47;4962222;28;20070;-82
2021/07/22 08:35:30;;;;;;;16.02;10.10;;;;;;;24.09;100.00;98373.41;4980489;28;20066;-82
2021/07/22 08:37:57;;;;;;;16.55;10.40;;;;;;;23.76;96.70;98375.53;4961834;28;20050;-82
2021/07/22 08:40:26;;;;;;;16.30;10.45;;;;;;;23.05;95.62;98366.53;4977679;28;20495;-83
2021/07/22 08:42:56;;;;;;;16.70;10.80;;;;;;;23.37;100.00;98361.38;4961361;28;20051;-84
2021/07/22 08:45:22;;;;;;;15.88;10.70;;;;;;;23.26;100.00;98374.25;4979629;28;20043;-83
2021/07/22 08:47:49;;;;;;;17.65;10.57;;;;;;;23.56;100.00;98369.44;4959955;28;20735;-82
2021/07/22 08:50:16;;;;;;;15.35;10.85;;;;;;;23.74;100.00;98372.34;4971985;28;20058;-82
2021/07/22 08:52:42;;;;;;;16.10;10.57;;;;;;;24.15;92.66;98365.56;4955060;28;20051;-83
2021/07/22 08:55:10;;;;;;;18.70;11.93;;;;;;;24.36;73.17;98364.88;4954344;28;20046;-82
2021/07/22 08:57:38;;;;;;;17.13;11.48;;;;;;;24.56;77.94;98357.84;4941210;28;20046;-83
2021/07/22 09:00:06;;;;;;;16.90;11.05;;;;;;;24.42;78.93;98371.59;4955446;28;20053;-82
2021/07/22 09:02:33;;;;;;;21.38;11.88;;;;;;;23.92;92.37;98367.75;4972664;28;20407;-82
2021/07/22 09:05:00;;;;;;;18.25;11.30;;;;;;;24.67;93.83;98367.00;4972749;28;20203;-82
2021/07/22 09:07:31;;;;;;;16.02;11.00;;;;;;;23.65;95.41;98358.84;4983117;28;20111;-83
2021/07/22 09:10:04;;;;;;;16.35;11.32;;;;;;;24.07;94.51;98369.41;4990426;28;20047;-83
2021/07/22 09:12:38;;;;;;;16.67;11.95;;;;;;;24.68;85.18;98354.72;4990715;28;20074;-83
2021/07/22 09:15:06;;;;;;;18.63;11.95;;;;;;;24.20;68.70;98356.88;4974807;28;20038;-82
2021/07/22 09:17:54;;;;;;;17.67;12.63;;;;;;;24.12;70.71;98361.59;4975687;28;20070;-83
2021/07/22 09:20:37;;;;;;;16.80;11.90;;;;;;;24.48;83.77;98359.00;4991697;28;20050;-84
2021/07/22 09:23:05;;;;;;;19.85;12.35;;;;;;;24.48;63.85;98359.78;4989486;28;20043;-85
2021/07/22 09:25:46;;;;;;;17.33;12.05;;;;;;;24.82;59.18;98346.50;4967422;28;20406;-84
2021/07/22 09:28:19;;;;;;;18.42;11.75;;;;;;;25.06;63.11;98354.06;4984878;28;20061;-84
2021/07/22 09:31:04;;;;;;;16.63;12.15;;;;;;;25.07;65.00;98349.31;4984023;28;20065;-83
2021/07/22 09:33:43;;;;;;;18.50;12.43;;;;;;;24.91;54.55;98338.59;5001940;28;20046;-84
2021/07/22 09:36:19;;;;;;;22.13;12.98;;;;;;;25.01;62.29;98346.13;5009796;28;20038;-84
2021/07/22 09:38:45;;;;;;;18.27;12.32;;;;;;;25.66;54.83;98339.47;4985055;28;20458;-84
2021/07/22 09:41:19;;;;;;;20.35;11.95;;;;;;;26.27;55.64;98332.69;5049645;23;20053;-80
2021/07/22 09:43:46;;;;;;;16.35;11.75;;;;;;;25.94;52.32;98336.66;5062870;28;20041;-80
2021/07/22 09:46:16;;;;;;;17.70;11.60;;;;;;;25.88;45.49;98332.75;5061661;28;20041;-81
2021/07/22 09:49:08;;;;;;;21.00;11.23;;;;;;;26.17;43.67;98325.19;5062942;28;20049;-79
2021/07/22 09:51:37;;;;;;;16.27;11.50;;;;;;;27.00;42.96;98331.56;5065100;28;20041;-80
2021/07/22 09:54:09;;;;;;;16.67;11.55;;;;;;;26.59;44.33;98328.56;5044922;28;20059;-82
2021/07/22 09:56:45;;;;;;;16.83;10.60;;;;;;;26.38;43.55;98334.22;5065269;28;20041;-80
2021/07/22 09:59:12;;;;;;;15.27;10.43;;;;;;;26.39;45.29;98335.00;5065002;28;20072;-83
2021/07/22 10:01:45;;;;;;;15.88;10.15;;;;;;;26.43;45.63;98327.44;5063660;28;20486;-82
2021/07/22 10:04:13;;;;;;;16.60;11.02;;;;;;;25.64;45.02;98323.25;5064566;28;20041;-80
2021/07/22 10:06:43;;;;;;;16.15;11.20;;;;;;;25.37;45.41;98324.78;5066799;28;20149;-78
2021/07/22 10:09:16;;;;;;;15.77;11.32;;;;;;;25.47;44.54;98326.03;5051151;28;20053;-80
2021/07/22 10:11:43;;;;;;;17.42;11.20;;;;;;;25.62;52.45;98325.63;5075633;28;20145;-81
2021/07/22 10:14:14;;;;;;;16.67;11.27;;;;;;;25.61;46.04;98328.78;5075206;28;20041;-80
2021/07/22 10:16:41;;;;;;;18.17;11.50;;;;;;;25.98;46.78;98323.59;5076175;28;20120;-80
2021/07/22 10:19:08;;;;;;;19.17;11.23;;;;;;;25.46;45.66;98316.91;5074999;28;20037;-81
2021/07/22 10:21:35;;;;;;;17.67;11.68;;;;;;;25.75;47.65;98320.47;5066499;28;20057;-82
2021/07/22 10:24:05;;;;;;;19.67;11.30;;;;;;;25.57;49.98;98316.91;5048932;28;20049;-80
2021/07/22 10:26:39;;;;;;;22.95;11.63;;;;;;;25.31;48.72;98315.31;5066056;28;20045;-80
2021/07/22 10:29:08;;;;;;;17.88;11.38;;;;;;;25.52;50.10;98318.13;5066798;28;20120;-81
2021/07/22 10:31:46;;;;;;;18.25;10.73;;;;;;;25.71;49.84;98317.69;5066807;28;20041;-81
2021/07/22 10:34:16;;;;;;;16.92;10.98;;;;;;;25.31;50.87;98318.06;5048101;28;20103;-82
2021/07/22 10:36:44;;;;;;;19.35;10.60;;;;;;;24.81;47.95;98308.09;5046558;28;20068;-81
2021/07/22 10:39:13;;;;;;;17.58;11.25;;;;;;;24.64;53.87;98315.16;5065477;28;20080;-81
2021/07/22 10:41:41;;;;;;;17.73;11.07;;;;;;;25.52;57.65;98297.91;5065602;28;20049;-82
2021/07/22 10:44:20;;;;;;;16.73;10.85;;;;;;;26.09;53.64;98304.16;5067127;28;20049;-81
2021/07/22 10:46:57;;;;;;;18.02;11.57;;;;;;;25.88;50.43;98311.34;5062457;28;20067;-81
2021/07/22 10:49:38;;;;;;;16.40;10.80;;;;;;;25.52;49.62;98307.03;5062171;28;20048;-81
2021/07/22 10:52:06;;;;;;;19.90;10.93;;;;;;;24.38;54.96;98315.44;5062528;28;20072;-81
2021/07/22 10:54:48;;;;;;;22.77;11.43;;;;;;;23.81;57.23;98306.03;5043613;28;20056;-80
2021/07/22 10:57:33;;;;;;;19.83;11.02;;;;;;;25.39;52.87;98306.59;5063065;28;20044;-79
2021/07/22 11:00:00;;;;;;;15.80;10.88;;;;;;;26.70;52.58;98303.53;5056803;28;20120;-80
2021/07/22 11:02:40;;;;;;;17.38;11.07;;;;;;;27.69;45.24;98302.84;5062145;28;20041;-79
2021/07/22 11:05:20;;;;;;;18.55;10.30;;;;;;;30.76;39.45;98284.97;5064232;28;20191;-80
2021/07/22 11:08:22;;;;;;;158.90;50.95;;;;;;;31.88;35.25;98286.25;5045921;28;20052;-82
2021/07/22 11:10:50;;;;;;;14.68;9.55;;;;;;;30.95;34.14;98290.97;5063759;28;20041;-81
2021/07/22 11:13:38;;;;;;;18.63;9.85;;;;;;;29.93;36.60;98277.09;5066335;28;20049;-81
2021/07/22 11:16:09;;;;;;;14.10;9.40;;;;;;;29.00;40.10;98277.81;5050138;28;20051;-81
2021/07/22 11:18:42;;;;;;;15.10;9.65;;;;;;;28.62;41.18;98279.16;5063826;28;20056;-81
2021/07/22 11:21:16;;;;;;;12.82;9.57;;;;;;;27.70;43.98;98284.94;5064025;28;20072;-81